createdAt,value
2019-05-15T00:00:13.560Z,90.10
2019-05-15T00:02:42.088Z,90.10
2019-05-15T00:05:10.952Z,90.00
2019-05-15T00:07:39.579Z,90.20
2019-05-15T00:10:09.102Z,90.20
2019-05-15T00:12:39.659Z,90.40
2019-05-15T00:15:09.250Z,90.30
2019-05-15T00:17:39.318Z,90.50
2019-05-15T00:20:09.915Z,90.60
2019-05-15T00:22:39.071Z,90.60
2019-05-15T00:25:09.272Z,90.70
2019-05-15T00:27:38.854Z,91.20
2019-05-15T00:30:09.727Z,91.10
2019-05-15T00:32:39.303Z,91.10
2019-05-15T00:35:09.347Z,91.10
2019-05-15T00:37:39.001Z,91.00
2019-05-15T00:40:08.766Z,91.00
2019-05-15T00:42:38.448Z,91.10
2019-05-15T00:45:09.433Z,91.20
2019-05-15T00:47:39.628Z,91.00
2019-05-15T00:50:09.960Z,90.80
2019-05-15T00:52:39.555Z,90.50
2019-05-15T00:55:09.023Z,91.20
2019-05-15T00:57:39.149Z,91.30
2019-05-15T01:00:09.634Z,90.90
2019-05-15T01:02:38.758Z,91.20
2019-05-15T01:05:08.497Z,91.30
2019-05-15T01:07:39.209Z,91.30
2019-05-15T01:10:09.843Z,91.70
2019-05-15T01:12:38.586Z,91.70
2019-05-15T01:15:09.294Z,91.50
2019-05-15T01:17:39.137Z,91.60
2019-05-15T01:20:08.623Z,91.70
2019-05-15T01:22:39.326Z,91.80
2019-05-15T01:25:08.685Z,91.90
2019-05-15T01:27:38.685Z,92.10
2019-05-15T01:30:09.001Z,92.50
2019-05-15T01:32:39.396Z,92.50
2019-05-15T01:35:09.498Z,92.90
2019-05-15T01:37:38.993Z,93.10
2019-05-15T01:40:09.027Z,93.00
2019-05-15T01:42:38.851Z,93.40
2019-05-15T01:45:08.606Z,93.20
2019-05-15T01:47:38.862Z,93.20
2019-05-15T01:50:09.318Z,93.30
2019-05-15T01:52:39.051Z,93.30
2019-05-15T01:55:09.247Z,93.00
2019-05-15T01:57:38.561Z,92.90
2019-05-15T02:00:09.392Z,93.10
2019-05-15T02:02:39.038Z,92.80
2019-05-15T02:05:09.336Z,92.90
2019-05-15T02:07:39.195Z,93.10
2019-05-15T02:10:09.346Z,93.10
2019-05-15T02:12:38.963Z,93.10
2019-05-15T02:15:08.838Z,93.40
2019-05-15T02:17:39.212Z,93.20
2019-05-15T02:20:08.497Z,93.00
2019-05-15T02:22:41.926Z,93.10
2019-05-15T02:25:09.269Z,93.20
2019-05-15T02:27:39.416Z,93.00
2019-05-15T02:30:22.306Z,93.20
2019-05-15T02:32:39.873Z,93.30
2019-05-15T02:35:09.907Z,93.60
2019-05-15T02:37:40.810Z,93.30
2019-05-15T02:40:10.162Z,93.10
2019-05-15T02:42:39.951Z,93.50
2019-05-15T02:45:10.193Z,93.50
2019-05-15T02:47:39.764Z,93.60
2019-05-15T02:50:10.662Z,93.30
2019-05-15T02:52:44.484Z,93.40
2019-05-15T02:55:10.108Z,93.30
2019-05-15T02:57:39.570Z,93.00
2019-05-15T03:00:10.982Z,93.10
2019-05-15T03:02:41.499Z,93.00
2019-05-15T03:05:10.140Z,92.80
2019-05-15T03:07:40.201Z,92.90
2019-05-15T03:10:10.212Z,93.10
2019-05-15T03:12:40.921Z,93.10
2019-05-15T03:15:09.989Z,92.80
2019-05-15T03:17:40.379Z,92.80
2019-05-15T03:20:11.257Z,92.70
2019-05-15T03:22:40.703Z,92.60
2019-05-15T03:25:11.250Z,92.60
2019-05-15T03:27:40.192Z,92.70
2019-05-15T03:30:13.682Z,92.80
2019-05-15T03:32:46.559Z,92.50
2019-05-15T03:35:14.108Z,92.50
2019-05-15T03:37:40.326Z,92.70
2019-05-15T03:40:10.374Z,92.60
2019-05-15T03:42:39.965Z,92.40
2019-05-15T03:45:10.149Z,92.30
2019-05-15T03:47:40.468Z,92.60
2019-05-15T03:50:10.658Z,92.60
2019-05-15T03:52:39.852Z,92.60
2019-05-15T03:55:10.917Z,92.60
2019-05-15T03:57:39.899Z,92.80
2019-05-15T04:00:10.115Z,92.80
2019-05-15T04:02:39.694Z,92.80
2019-05-15T04:05:11.931Z,92.80
2019-05-15T04:07:40.217Z,92.60
2019-05-15T04:10:10.023Z,92.50
2019-05-15T04:12:40.475Z,92.50
2019-05-15T04:15:10.170Z,92.60
2019-05-15T04:17:40.365Z,92.70
2019-05-15T04:20:10.673Z,92.50
2019-05-15T04:22:40.361Z,92.60
2019-05-15T04:25:10.458Z,92.80
2019-05-15T04:27:42.932Z,92.70
2019-05-15T04:30:12.127Z,92.50
2019-05-15T04:32:40.807Z,92.70
2019-05-15T04:35:09.878Z,92.90
2019-05-15T04:37:40.567Z,92.90
2019-05-15T04:40:10.339Z,93.00
2019-05-15T04:42:39.821Z,92.70
2019-05-15T04:45:10.729Z,92.80
2019-05-15T04:47:40.014Z,92.80
2019-05-15T04:50:09.544Z,92.80
2019-05-15T04:52:42.551Z,93.00
2019-05-15T04:55:10.300Z,93.10
2019-05-15T04:57:40.576Z,92.90
2019-05-15T05:00:10.241Z,93.10
2019-05-15T05:02:39.965Z,93.30
2019-05-15T05:05:10.503Z,93.10
2019-05-15T05:07:39.648Z,93.10
2019-05-15T05:10:09.802Z,93.20
2019-05-15T05:12:41.910Z,93.10
2019-05-15T05:15:08.963Z,93.10
2019-05-15T05:17:39.132Z,93.40
2019-05-15T05:20:08.225Z,93.20
2019-05-15T05:22:39.423Z,93.00
2019-05-15T05:25:08.265Z,93.20
2019-05-15T05:27:38.268Z,93.00
2019-05-15T05:30:08.494Z,93.00
2019-05-15T05:32:39.056Z,93.00
2019-05-15T05:35:08.626Z,93.10
2019-05-15T05:37:39.069Z,93.60
2019-05-15T05:40:08.340Z,93.60
2019-05-15T05:42:38.842Z,93.30
2019-05-15T05:45:09.395Z,93.30
2019-05-15T05:47:38.535Z,93.40
2019-05-15T05:50:08.523Z,93.00
2019-05-15T05:52:39.125Z,93.60
2019-05-15T05:55:08.698Z,93.20
2019-05-15T05:57:38.314Z,92.80
2019-05-15T06:00:09.698Z,93.00
2019-05-15T06:02:46.991Z,93.10
2019-05-15T06:05:08.603Z,93.00
2019-05-15T06:07:38.797Z,92.50
2019-05-15T06:10:10.279Z,92.70
2019-05-15T06:12:39.164Z,93.00
2019-05-15T06:15:28.559Z,92.80
2019-05-15T06:17:58.521Z,92.80
2019-05-15T06:20:28.308Z,92.80
2019-05-15T06:22:57.993Z,92.80
2019-05-15T06:25:30.278Z,92.70
2019-05-15T06:27:58.328Z,92.60
2019-05-15T06:30:30.810Z,92.90
2019-05-15T06:33:05.761Z,92.30
2019-05-15T06:35:31.261Z,92.20
2019-05-15T06:37:59.884Z,92.60
2019-05-15T06:40:28.913Z,92.60
2019-05-15T06:42:59.380Z,92.40
2019-05-15T06:45:28.527Z,92.80
2019-05-15T06:47:58.227Z,93.00
2019-05-15T06:50:38.742Z,92.90
2019-05-15T06:53:10.471Z,92.70
2019-05-15T06:55:38.897Z,92.70
2019-05-15T06:58:09.264Z,92.70
2019-05-15T07:00:39.066Z,93.20
2019-05-15T07:03:18.064Z,92.50
2019-05-15T07:05:38.639Z,92.30
2019-05-15T07:08:09.027Z,92.60
2019-05-15T07:10:37.842Z,92.20
2019-05-15T07:13:08.710Z,92.30
2019-05-15T07:15:38.411Z,92.40
2019-05-15T07:18:08.710Z,92.70
2019-05-15T07:20:39.124Z,92.90
2019-05-15T07:23:08.879Z,93.10
2019-05-15T07:25:39.077Z,92.70
2019-05-15T07:28:08.812Z,92.40
2019-05-15T07:30:41.070Z,92.50
2019-05-15T07:33:08.768Z,92.40
2019-05-15T07:35:38.451Z,92.30
2019-05-15T07:38:08.030Z,91.60
2019-05-15T07:40:38.532Z,91.90
2019-05-15T07:43:09.318Z,91.50
2019-05-15T07:45:43.058Z,91.80
2019-05-15T07:48:09.179Z,91.90
2019-05-15T07:50:38.737Z,91.70
2019-05-15T07:53:09.274Z,91.50
2019-05-15T07:55:39.360Z,91.60
2019-05-15T07:58:08.593Z,91.60
2019-05-15T08:00:39.448Z,91.90
2019-05-15T08:03:10.271Z,92.00
2019-05-15T08:05:42.684Z,91.30
2019-05-15T08:08:08.840Z,92.00
2019-05-15T08:10:39.724Z,91.30
2019-05-15T08:13:08.909Z,91.30
2019-05-15T08:15:38.125Z,91.30
2019-05-15T08:18:11.894Z,91.10
2019-05-15T08:20:38.495Z,91.10
2019-05-15T08:23:08.532Z,91.60
2019-05-15T08:25:38.939Z,91.50
2019-05-15T08:28:08.873Z,91.20
2019-05-15T08:30:38.680Z,91.50
2019-05-15T08:33:08.371Z,91.30
2019-05-15T08:35:38.724Z,91.50
2019-05-15T08:38:08.794Z,91.30
2019-05-15T08:40:41.018Z,91.00
2019-05-15T08:43:11.327Z,90.40
2019-05-15T08:45:39.166Z,90.00
2019-05-15T08:48:09.373Z,90.10
2019-05-15T08:50:39.048Z,90.10
2019-05-15T08:53:08.393Z,91.10
2019-05-15T08:55:39.103Z,90.50
2019-05-15T08:58:13.238Z,90.10
2019-05-15T09:00:40.156Z,90.10
2019-05-15T09:03:08.690Z,90.00
2019-05-15T09:05:38.828Z,89.40
2019-05-15T09:08:09.307Z,89.40
2019-05-15T09:10:38.631Z,88.30
2019-05-15T09:13:09.611Z,88.60
2019-05-15T09:15:39.534Z,87.50
2019-05-15T09:18:15.057Z,85.50
2019-05-15T09:20:38.383Z,86.80
2019-05-15T09:23:08.963Z,85.60
2019-05-15T09:25:39.005Z,85.40
2019-05-15T09:28:08.688Z,86.80
2019-05-15T09:30:39.179Z,85.00
2019-05-15T09:33:08.837Z,85.20
2019-05-15T09:35:39.249Z,84.30
2019-05-15T09:38:08.637Z,84.30
2019-05-15T09:40:43.267Z,86.20
2019-05-15T09:43:10.865Z,86.00
2019-05-15T09:45:38.186Z,85.70
2019-05-15T09:48:09.713Z,82.80
2019-05-15T09:50:39.638Z,83.50
2019-05-15T09:53:09.257Z,83.60
2019-05-15T09:55:38.167Z,84.30
2019-05-15T09:58:08.252Z,84.50
2019-05-15T10:00:38.577Z,84.00
2019-05-15T10:03:09.579Z,81.70
2019-05-15T10:05:39.122Z,84.80
2019-05-15T10:08:08.999Z,83.50
2019-05-15T10:10:38.124Z,83.70
2019-05-15T10:13:08.861Z,84.70
2019-05-15T10:15:38.975Z,83.30
2019-05-15T10:18:09.726Z,83.80
2019-05-15T10:20:37.418Z,82.90
2019-05-15T10:23:08.581Z,83.30
2019-05-15T10:25:36.158Z,83.40
2019-05-15T10:28:04.683Z,82.60
2019-05-15T10:30:33.148Z,82.30
2019-05-15T10:33:01.906Z,82.60
2019-05-15T10:35:31.770Z,83.60
2019-05-15T10:38:00.566Z,84.00
2019-05-15T10:40:29.785Z,84.30
2019-05-15T10:42:59.431Z,82.90
2019-05-15T10:45:29.544Z,80.40
2019-05-15T10:47:58.615Z,76.40
2019-05-15T10:50:28.360Z,76.20
2019-05-15T10:52:57.436Z,77.80
2019-05-15T10:55:25.888Z,76.90
2019-05-15T10:57:54.400Z,76.30
2019-05-15T11:00:23.363Z,77.30
2019-05-15T11:02:51.897Z,76.50
2019-05-15T11:05:20.585Z,77.00
2019-05-15T11:07:49.349Z,78.00
2019-05-15T11:10:18.785Z,75.50
2019-05-15T11:12:47.351Z,75.70
2019-05-15T11:15:18.448Z,72.50
2019-05-15T11:17:48.994Z,73.50
2019-05-15T11:20:18.837Z,73.50
2019-05-15T11:22:50.031Z,75.10
2019-05-15T11:25:17.990Z,77.30
2019-05-15T11:27:48.448Z,76.40
2019-05-15T11:30:19.274Z,76.40
2019-05-15T11:32:48.659Z,75.40
2019-05-15T11:35:18.890Z,75.90
2019-05-15T11:37:55.902Z,77.20
2019-05-15T11:40:18.995Z,76.00
2019-05-15T11:42:48.764Z,75.30
2019-05-15T11:45:18.598Z,73.50
2019-05-15T11:47:48.265Z,75.60
2019-05-15T11:50:20.541Z,76.30
2019-05-15T11:52:47.903Z,75.70
2019-05-15T11:55:16.511Z,71.80
2019-05-15T11:57:47.597Z,75.10
2019-05-15T12:00:21.997Z,74.90
2019-05-15T12:02:46.048Z,74.90
2019-05-15T12:05:18.084Z,73.90
2019-05-15T12:07:47.871Z,73.70
2019-05-15T12:10:18.395Z,69.70
2019-05-15T12:12:49.462Z,71.20
2019-05-15T12:15:19.053Z,74.50
2019-05-15T12:17:48.512Z,73.70
2019-05-15T12:20:19.411Z,73.40
2019-05-15T12:22:48.634Z,73.90
2019-05-15T12:25:17.759Z,72.70
2019-05-15T12:27:48.496Z,72.60
2019-05-15T12:30:19.891Z,72.30
2019-05-15T12:32:49.220Z,72.40
2019-05-15T12:35:20.513Z,74.10
2019-05-15T12:37:48.155Z,74.60
2019-05-15T13:00:19.991Z,72.70
2019-05-15T13:02:49.174Z,73.40
2019-05-15T13:05:19.221Z,69.20
2019-05-15T13:07:48.364Z,71.60
2019-05-15T13:10:18.367Z,73.30
2019-05-15T13:12:59.153Z,70.30
2019-05-15T13:15:18.934Z,73.00
2019-05-15T13:17:52.625Z,70.00
2019-05-15T13:20:18.559Z,70.80
2019-05-15T13:25:18.663Z,70.10
2019-05-15T13:27:48.657Z,70.80
2019-05-15T13:30:18.436Z,70.00
2019-05-15T13:32:49.571Z,67.40
2019-05-15T13:35:18.358Z,69.90
2019-05-15T13:37:49.511Z,73.10
2019-05-15T13:40:18.674Z,71.00
2019-05-15T13:42:48.577Z,71.20
2019-05-15T13:45:18.343Z,70.90
2019-05-15T13:47:46.870Z,68.20
2019-05-15T13:50:15.562Z,67.40
2019-05-15T13:52:44.379Z,68.80
2019-05-15T13:55:13.090Z,68.80
2019-05-15T13:57:41.550Z,67.70
2019-05-15T14:00:10.698Z,69.70
2019-05-15T14:02:39.453Z,68.10
2019-05-15T14:05:09.433Z,70.30
2019-05-15T14:07:48.816Z,69.80
2019-05-15T14:10:09.886Z,70.70
2019-05-15T14:12:38.955Z,70.90
2019-05-15T14:15:09.362Z,69.70
2019-05-15T14:17:38.200Z,70.70
2019-05-15T14:20:09.156Z,70.00
2019-05-15T14:22:38.985Z,67.90
2019-05-15T14:25:08.815Z,71.20
2019-05-15T14:27:39.755Z,68.60
2019-05-15T14:30:09.269Z,70.60
2019-05-15T14:32:39.354Z,71.20
2019-05-15T14:35:09.352Z,70.10
2019-05-15T14:37:37.983Z,71.60
2019-05-15T14:40:09.016Z,69.20
2019-05-15T14:42:39.383Z,66.80
2019-05-15T14:45:09.697Z,71.30
2019-05-15T14:47:39.133Z,70.30
2019-05-15T14:50:10.010Z,70.50
2019-05-15T14:52:38.723Z,71.50
2019-05-15T14:55:08.164Z,70.70
2019-05-15T14:57:39.211Z,71.90
2019-05-15T15:00:08.847Z,71.30
2019-05-15T15:02:38.960Z,68.70
2019-05-15T15:05:09.199Z,69.80
2019-05-15T15:07:38.848Z,71.40
2019-05-15T15:10:08.463Z,70.30
2019-05-15T15:12:39.761Z,69.30
2019-05-15T15:15:09.719Z,70.90
2019-05-15T15:17:39.155Z,69.10
2019-05-15T15:20:08.227Z,70.40
2019-05-15T15:22:39.135Z,68.70
2019-05-15T15:25:09.463Z,71.10
2019-05-15T15:27:38.869Z,69.60
2019-05-15T15:30:09.347Z,69.80
2019-05-15T15:32:38.781Z,71.00
2019-05-15T15:35:08.502Z,70.50
2019-05-15T15:37:38.301Z,71.10
2019-05-15T15:40:08.412Z,69.30
2019-05-15T15:42:39.439Z,70.30
2019-05-15T15:45:09.103Z,68.40
2019-05-15T15:47:38.917Z,70.40
2019-05-15T15:50:09.422Z,69.90
2019-05-15T15:52:38.797Z,67.20
2019-05-15T15:55:09.110Z,69.30
2019-05-15T15:57:40.065Z,69.00
2019-05-15T16:00:09.925Z,68.90
2019-05-15T16:02:41.151Z,66.40
2019-05-15T16:05:09.932Z,68.30
2019-05-15T16:07:38.840Z,67.60
2019-05-15T16:10:08.768Z,68.40
2019-05-15T16:12:38.727Z,68.00
2019-05-15T16:15:09.505Z,68.60
2019-05-15T16:17:38.684Z,66.80
2019-05-15T16:20:09.299Z,68.10
2019-05-15T16:22:38.323Z,67.60
2019-05-15T16:25:10.418Z,68.70
2019-05-15T16:27:38.877Z,69.70
2019-05-15T16:30:08.517Z,69.40
2019-05-15T16:32:38.839Z,70.10
2019-05-15T16:35:09.200Z,69.40
2019-05-15T16:37:38.860Z,68.20
2019-05-15T16:40:08.885Z,69.20
2019-05-15T16:42:38.536Z,70.10
2019-05-15T16:45:09.658Z,67.50
2019-05-15T16:47:39.176Z,69.20
2019-05-15T16:50:08.962Z,69.30
2019-05-15T16:52:38.865Z,71.20
2019-05-15T16:55:09.571Z,70.20
2019-05-15T16:57:38.883Z,67.70
2019-05-15T17:00:09.715Z,67.90
2019-05-15T17:02:39.755Z,68.90
2019-05-15T17:05:09.864Z,69.60
2019-05-15T17:07:38.975Z,70.20
2019-05-15T17:10:08.433Z,70.40
2019-05-15T17:12:38.786Z,70.50
2019-05-15T17:15:09.856Z,70.80
2019-05-15T17:17:39.969Z,71.10
2019-05-15T17:20:09.762Z,71.40
2019-05-15T17:22:39.011Z,70.60
2019-05-15T17:25:09.182Z,70.80
2019-05-15T17:27:38.218Z,70.20
2019-05-15T17:30:09.393Z,69.30
2019-05-15T17:32:39.268Z,70.30
2019-05-15T17:35:09.857Z,71.40
2019-05-15T17:37:38.992Z,70.50
2019-05-15T17:40:08.696Z,71.00
2019-05-15T17:42:38.921Z,71.20
2019-05-15T17:45:09.099Z,71.20
2019-05-15T17:47:38.736Z,71.00
2019-05-15T17:50:08.923Z,71.50
2019-05-15T17:52:38.845Z,71.30
2019-05-15T17:55:08.255Z,70.20
2019-05-15T17:57:38.851Z,71.20
2019-05-15T18:00:12.239Z,72.30
2019-05-15T18:02:39.402Z,72.70
2019-05-15T18:05:09.293Z,69.40
2019-05-15T18:07:38.953Z,70.50
2019-05-15T18:10:08.770Z,71.70
2019-05-15T18:12:38.913Z,72.80
2019-05-15T18:15:09.106Z,71.30
2019-05-15T18:17:39.221Z,73.20
2019-05-15T18:20:09.786Z,71.90
2019-05-15T18:22:38.844Z,73.30
2019-05-15T18:25:09.005Z,73.10
2019-05-15T18:27:38.923Z,74.20
2019-05-15T18:30:09.243Z,73.20
2019-05-15T18:32:39.074Z,73.20
2019-05-15T18:35:08.471Z,71.70
2019-05-15T18:37:39.316Z,70.90
2019-05-15T18:40:10.009Z,71.40
2019-05-15T18:42:39.235Z,72.10
2019-05-15T18:45:10.135Z,73.30
2019-05-15T18:47:39.133Z,74.00
2019-05-15T18:50:13.239Z,74.60
2019-05-15T18:52:39.270Z,74.40
2019-05-15T18:55:08.295Z,75.00
2019-05-15T18:57:38.539Z,74.90
2019-05-15T19:00:09.936Z,75.20
2019-05-15T19:02:39.255Z,75.50
2019-05-15T19:05:08.628Z,75.70
2019-05-15T19:07:38.352Z,76.60
2019-05-15T19:10:10.505Z,77.40
2019-05-15T19:12:39.059Z,77.80
2019-05-15T19:15:09.205Z,77.80
2019-05-15T19:17:38.825Z,77.30
2019-05-15T19:20:08.931Z,77.80
2019-05-15T19:22:40.348Z,76.50
2019-05-15T19:25:08.942Z,77.00
2019-05-15T19:27:39.279Z,77.60
2019-05-15T19:30:09.909Z,78.10
2019-05-15T19:32:38.916Z,78.50
2019-05-15T19:35:08.174Z,79.20
2019-05-15T19:37:38.419Z,80.50
2019-05-15T19:40:09.563Z,79.90
2019-05-15T19:42:38.601Z,80.40
2019-05-15T19:45:09.301Z,80.80
2019-05-15T19:47:38.733Z,80.80
2019-05-15T19:50:09.548Z,80.50
2019-05-15T19:52:38.352Z,81.00
2019-05-15T19:55:08.845Z,81.90
2019-05-15T19:57:38.948Z,82.40
2019-05-15T20:00:08.812Z,82.50
2019-05-15T20:02:38.074Z,82.70
2019-05-15T20:05:09.116Z,83.30
2019-05-15T20:07:39.008Z,83.70
2019-05-15T20:10:08.834Z,84.30
2019-05-15T20:12:38.825Z,84.30
2019-05-15T20:15:09.460Z,85.50
2019-05-15T20:17:38.755Z,86.50
2019-05-15T20:20:08.722Z,86.80
2019-05-15T20:22:40.419Z,87.00
2019-05-15T20:25:08.661Z,86.50
2019-05-15T20:27:39.221Z,87.40
2019-05-15T20:30:08.653Z,86.50
2019-05-15T20:32:38.751Z,87.20
2019-05-15T20:35:08.919Z,88.30
2019-05-15T20:37:39.181Z,88.20
2019-05-15T20:40:09.397Z,88.60
2019-05-15T20:42:38.601Z,88.60
2019-05-15T20:45:12.066Z,88.00
2019-05-15T20:47:39.320Z,87.20
2019-05-15T20:50:09.041Z,87.80
2019-05-15T20:52:39.436Z,87.40
2019-05-15T20:55:09.135Z,87.00
2019-05-15T20:57:40.667Z,86.90
2019-05-15T21:00:10.499Z,87.00
2019-05-15T21:02:39.276Z,87.20
2019-05-15T21:05:09.055Z,87.10
2019-05-15T21:07:39.955Z,87.70
2019-05-15T21:10:09.624Z,87.60
2019-05-15T21:12:40.948Z,86.10
2019-05-15T21:15:10.081Z,86.20
2019-05-15T21:17:39.490Z,86.70
2019-05-15T21:20:09.612Z,86.60
2019-05-15T21:22:40.167Z,86.70
2019-05-15T21:25:10.922Z,86.00
2019-05-15T21:27:42.092Z,87.20
2019-05-15T21:30:10.725Z,87.80
2019-05-15T21:32:39.603Z,87.70
2019-05-15T21:35:09.248Z,88.60
2019-05-15T21:37:39.027Z,87.70
2019-05-15T21:40:08.494Z,88.40
2019-05-15T21:42:39.038Z,88.60
2019-05-15T21:45:14.279Z,89.60
2019-05-15T21:47:38.883Z,89.60
2019-05-15T21:50:08.338Z,89.60
2019-05-15T21:52:39.089Z,89.30
2019-05-15T21:55:09.649Z,88.10
2019-05-15T21:57:40.171Z,87.10
2019-05-15T22:00:18.120Z,86.90
2019-05-15T22:02:49.126Z,87.50
2019-05-15T22:05:19.089Z,87.30
2019-05-15T22:07:47.792Z,87.10
2019-05-15T22:10:19.214Z,86.10
2019-05-15T22:12:48.447Z,86.80
2019-05-15T22:15:18.944Z,87.10
2019-05-15T22:17:49.347Z,87.80
2019-05-15T22:20:18.879Z,88.10
2019-05-15T22:22:50.423Z,88.20
2019-05-15T22:25:19.035Z,87.90
2019-05-15T22:27:48.765Z,87.50
2019-05-15T22:30:19.889Z,87.50
2019-05-15T22:32:49.590Z,88.80
2019-05-15T22:35:18.938Z,89.90
2019-05-15T22:37:49.310Z,89.90
2019-05-15T22:40:18.573Z,90.20
2019-05-15T22:42:48.738Z,89.90
2019-05-15T22:45:18.512Z,90.10
2019-05-15T22:47:48.230Z,90.30
2019-05-15T22:50:18.822Z,90.10
2019-05-15T22:52:49.308Z,90.40
2019-05-15T22:55:18.416Z,90.90
2019-05-15T22:57:48.066Z,90.40
2019-05-15T23:00:18.538Z,90.60
2019-05-15T23:02:48.772Z,90.80
2019-05-15T23:05:26.169Z,90.40
2019-05-15T23:07:48.359Z,90.30
2019-05-15T23:10:17.155Z,90.00
2019-05-15T23:12:45.687Z,89.30
2019-05-15T23:15:14.917Z,89.40
2019-05-15T23:17:43.385Z,89.90
2019-05-15T23:20:12.217Z,90.30
2019-05-15T23:22:40.748Z,90.90
2019-05-15T23:25:09.350Z,91.00
2019-05-15T23:27:38.328Z,90.50
2019-05-15T23:30:08.988Z,90.20
2019-05-15T23:32:39.041Z,89.50
2019-05-15T23:35:08.510Z,90.00
2019-05-15T23:37:39.233Z,90.30
2019-05-15T23:40:08.889Z,90.10
2019-05-15T23:42:39.084Z,89.10
2019-05-15T23:45:08.411Z,89.10
2019-05-15T23:47:38.468Z,89.40
2019-05-15T23:50:07.166Z,88.00
2019-05-15T23:52:38.245Z,89.70
2019-05-15T23:55:08.572Z,89.90
2019-05-15T23:57:39.331Z,90.20
